Time;durP1;ratioP1;P1;durP2;ratioP2;P2;SDS_P1;SDS_P2;PMS_P1;PMS_P2;Temp;Humidity;BMP_temperature;BMP_pressure;BME280_temperature;BME280_humidity;BME280_pressure;Samples;Min_cycle;Max_cycle;Signal;HPM_P1;HPM_P2
2023/07/12 00:01:25;;;;;;;;;;;;;;;26.53;41.38;99706.03;3175840;27;20065;-65
2023/07/12 00:02:57;;;;;;;;;;;;;;;26.51;41.22;99708.03;3176166;27;19923;-66
2023/07/12 00:04:29;;;;;;;;;;;;;;;26.48;41.24;99708.34;3177180;27;19923;-66
2023/07/12 00:06:01;;;;;;;;;;;;;;;26.47;41.36;99705.84;3174654;27;19968;-66
2023/07/12 00:07:31;;;;;;;;;;;;;;;26.45;41.45;99708.69;3170960;27;20192;-66
2023/07/12 00:09:03;;;;;;;;;;;;;;;26.42;41.54;99702.88;3168934;27;20394;-65
2023/07/12 00:10:35;;;;;;;;;;;;;;;26.38;41.86;99707.72;3166937;28;19932;-66
2023/07/12 00:12:07;;;;;;;;;;;;;;;26.36;42.00;99709.75;3171409;27;19923;-65
2023/07/12 00:13:39;;;;;;;;;;;;;;;26.32;41.96;99706.59;3179383;27;20750;-65
2023/07/12 00:15:10;;;;;;;;;;;;;;;26.29;42.05;99704.25;3179587;27;20175;-66
2023/07/12 00:16:42;;;;;;;;;;;;;;;26.27;42.05;99703.59;3179350;27;19934;-66
2023/07/12 00:18:16;;;;;;;;;;;;;;;26.26;41.88;99707.25;3179292;27;20395;-66
2023/07/12 00:19:47;;;;;;;;;;;;;;;26.24;41.79;99700.44;3173869;27;19927;-66
2023/07/12 00:21:22;;;;;;;;;;;;;;;26.21;41.95;99712.31;3179536;27;19930;-66
2023/07/12 00:22:53;;;;;;;;;;;;;;;26.19;42.31;99703.63;3153929;28;20182;-66
2023/07/12 00:24:25;;;;;;;;;;;;;;;26.18;42.29;99706.47;3178456;27;20575;-66
2023/07/12 00:25:56;;;;;;;;;;;;;;;26.15;42.03;99707.66;3179241;27;20411;-66
2023/07/12 00:27:27;;;;;;;;;;;;;;;26.13;42.25;99698.16;3179424;27;19992;-66
2023/07/12 00:28:59;;;;;;;;;;;;;;;26.09;42.14;99698.50;3176724;27;19924;-66
2023/07/12 00:30:31;;;;;;;;;;;;;;;26.08;42.12;99702.16;3179390;27;19958;-65
2023/07/12 00:32:03;;;;;;;;;;;;;;;26.06;42.30;99706.03;3179261;27;19927;-66
2023/07/12 00:33:34;;;;;;;;;;;;;;;25.97;42.20;99683.88;3179288;27;19980;-66
2023/07/12 00:35:06;;;;;;;;;;;;;;;26.02;42.54;99705.50;3178118;27;19923;-66
2023/07/12 00:36:38;;;;;;;;;;;;;;;26.00;42.24;99694.19;3179042;27;19923;-66
2023/07/12 00:38:13;;;;;;;;;;;;;;;26.03;42.16;99704.53;3179592;27;19927;-67
2023/07/12 00:39:44;;;;;;;;;;;;;;;25.94;41.99;99675.34;3175184;27;19942;-66
2023/07/12 00:41:19;;;;;;;;;;;;;;;26.04;42.36;99695.50;3169577;27;19923;-66
2023/07/12 00:42:54;;;;;;;;;;;;;;;26.04;42.17;99698.16;3177563;27;19940;-67
2023/07/12 00:44:32;;;;;;;;;;;;;;;26.05;41.92;99697.16;3179182;27;19929;-67
2023/07/12 00:46:07;;;;;;;;;;;;;;;26.04;42.08;99698.16;3179338;27;19924;-66
2023/07/12 00:47:38;;;;;;;;;;;;;;;26.05;41.90;99701.66;3177310;27;19931;-65
2023/07/12 00:49:12;;;;;;;;;;;;;;;26.02;41.96;99694.00;3167924;27;19966;-66
2023/07/12 00:50:43;;;;;;;;;;;;;;;26.00;42.13;99691.53;3171736;27;19927;-66
2023/07/12 00:52:15;;;;;;;;;;;;;;;25.95;41.98;99693.88;3179163;27;19923;-66
2023/07/12 00:53:46;;;;;;;;;;;;;;;25.94;42.39;99686.88;3153933;28;19924;-66
2023/07/12 00:55:32;;;;;;;;;;;;;;;25.93;42.44;99693.19;3177777;27;20038;-66
2023/07/12 00:57:04;;;;;;;;;;;;;;;25.92;42.08;99688.03;3154454;28;19997;-66
2023/07/12 00:58:37;;;;;;;;;;;;;;;25.92;42.29;99696.88;3178642;27;20363;-66
2023/07/12 01:00:11;;;;;;;;;;;;;;;25.92;42.05;99696.06;3179046;27;19951;-65
2023/07/12 01:01:42;;;;;;;;;;;;;;;25.92;42.12;99688.88;3172388;27;19950;-65
2023/07/12 01:03:25;;;;;;;;;;;;;;;25.93;42.00;99687.03;3176952;27;19923;-65
2023/07/12 01:04:59;;;;;;;;;;;;;;;25.93;42.03;99693.19;3174662;27;19923;-66
2023/07/12 01:06:30;;;;;;;;;;;;;;;25.93;41.99;99679.03;3178672;27;20342;-66
2023/07/12 01:08:02;;;;;;;;;;;;;;;25.95;42.06;99688.53;3178757;27;20014;-66
2023/07/12 01:09:33;;;;;;;;;;;;;;;25.96;41.81;99686.69;3170494;27;20270;-66
2023/07/12 01:11:04;;;;;;;;;;;;;;;25.97;41.71;99686.53;3174846;27;19953;-66
2023/07/12 01:12:36;;;;;;;;;;;;;;;25.97;41.71;99681.19;3178689;27;20513;-65
2023/07/12 01:14:09;;;;;;;;;;;;;;;25.98;41.72;99685.53;3178617;27;19996;-66
2023/07/12 01:15:40;;;;;;;;;;;;;;;25.99;41.67;99689.00;3178705;27;19923;-66
2023/07/12 01:17:12;;;;;;;;;;;;;;;25.97;41.77;99685.69;3178613;27;20347;-66
2023/07/12 01:18:43;;;;;;;;;;;;;;;25.95;41.74;99680.53;3178732;27;19923;-67
2023/07/12 01:20:16;;;;;;;;;;;;;;;25.92;41.90;99678.19;3178303;27;20045;-66
2023/07/12 01:21:49;;;;;;;;;;;;;;;25.92;41.99;99675.53;3178733;27;19931;-67
2023/07/12 01:23:21;;;;;;;;;;;;;;;25.92;41.79;99670.19;3178326;27;19929;-66
2023/07/12 01:24:51;;;;;;;;;;;;;;;25.91;42.18;99679.22;3178615;27;19980;-67
2023/07/12 01:26:25;;;;;;;;;;;;;;;25.89;41.87;99673.22;3178824;27;20349;-67
2023/07/12 01:27:55;;;;;;;;;;;;;;;25.89;42.18;99669.72;3175819;27;19927;-67
2023/07/12 01:29:28;;;;;;;;;;;;;;;25.89;42.04;99675.06;3153428;28;20031;-67
2023/07/12 01:30:58;;;;;;;;;;;;;;;25.89;42.11;99669.72;3176922;27;19923;-67
2023/07/12 01:32:31;;;;;;;;;;;;;;;25.88;42.00;99663.53;3178357;27;19966;-65
2023/07/12 01:34:02;;;;;;;;;;;;;;;25.89;41.65;99662.53;3178862;27;20692;-66
2023/07/12 01:35:33;;;;;;;;;;;;;;;25.90;41.67;99668.69;3176819;27;19930;-66
2023/07/12 01:37:06;;;;;;;;;;;;;;;25.90;41.91;99672.19;3178191;27;19967;-66
2023/07/12 01:38:37;;;;;;;;;;;;;;;25.89;41.68;99673.22;3177860;27;19923;-66
2023/07/12 01:40:09;;;;;;;;;;;;;;;25.89;41.74;99673.22;3173222;27;19931;-65
2023/07/12 01:41:40;;;;;;;;;;;;;;;25.88;41.96;99674.19;3178468;27;19923;-65
2023/07/12 01:43:12;;;;;;;;;;;;;;;25.88;41.97;99674.19;3178515;27;20026;-65
2023/07/12 01:44:42;;;;;;;;;;;;;;;25.88;41.82;99674.19;3178734;27;19987;-65
2023/07/12 01:46:14;;;;;;;;;;;;;;;25.87;41.59;99683.22;3178422;27;20112;-65
2023/07/12 01:47:45;;;;;;;;;;;;;;;25.87;41.94;99676.03;3178155;27;19931;-65
2023/07/12 01:49:17;;;;;;;;;;;;;;;25.86;41.60;99689.56;3177762;27;20013;-65
2023/07/12 01:50:47;;;;;;;;;;;;;;;25.86;41.95;99689.56;3167297;27;19924;-65
2023/07/12 01:52:20;;;;;;;;;;;;;;;25.85;41.88;99678.06;3178702;27;19962;-65
2023/07/12 01:53:51;;;;;;;;;;;;;;;25.84;41.88;99673.72;3168505;27;19924;-65
2023/07/12 01:55:23;;;;;;;;;;;;;;;25.85;41.92;99679.88;3178608;27;20068;-66
2023/07/12 01:56:53;;;;;;;;;;;;;;;25.85;41.90;99680.72;3178570;27;19923;-66
2023/07/12 01:58:25;;;;;;;;;;;;;;;25.87;41.85;99677.88;3178217;27;19984;-66
2023/07/12 01:59:55;;;;;;;;;;;;;;;25.87;41.76;99681.38;3178236;27;19988;-66
2023/07/12 02:01:27;;;;;;;;;;;;;;;25.88;41.77;99682.19;3174112;27;20018;-66
2023/07/12 02:02:58;;;;;;;;;;;;;;;25.86;41.53;99689.56;3174572;27;20384;-66
2023/07/12 02:04:29;;;;;;;;;;;;;;;25.85;41.58;99680.72;3175671;27;19923;-66
2023/07/12 02:06:00;;;;;;;;;;;;;;;25.84;41.58;99689.72;3172837;27;20412;-65
2023/07/12 02:07:33;;;;;;;;;;;;;;;25.81;41.65;99689.19;3178480;27;19934;-66
2023/07/12 02:09:05;;;;;;;;;;;;;;;25.75;41.97;99688.03;3173332;27;20316;-66
2023/07/12 02:10:36;;;;;;;;;;;;;;;25.69;42.04;99680.72;3170317;27;19929;-65
2023/07/12 02:12:08;;;;;;;;;;;;;;;25.65;42.02;99685.56;3178282;27;19923;-65
2023/07/12 02:13:38;;;;;;;;;;;;;;;25.61;42.55;99684.22;3177966;27;19930;-65
2023/07/12 02:15:11;;;;;;;;;;;;;;;25.57;42.35;99682.91;3178266;27;19923;-65
2023/07/12 02:16:43;;;;;;;;;;;;;;;25.51;42.78;99678.25;3178238;27;19968;-65
2023/07/12 02:18:14;;;;;;;;;;;;;;;25.49;42.88;99690.06;3177655;27;19980;-65
2023/07/12 02:19:45;;;;;;;;;;;;;;;25.47;42.97;99692.94;3165485;28;20430;-65
2023/07/12 02:21:16;;;;;;;;;;;;;;;25.46;42.91;99696.56;3152728;28;20510;-66
2023/07/12 02:22:49;;;;;;;;;;;;;;;25.43;42.74;99695.06;3176208;27;19923;-65
2023/07/12 02:24:21;;;;;;;;;;;;;;;25.41;43.10;99689.09;3178160;27;19923;-65
2023/07/12 02:25:52;;;;;;;;;;;;;;;25.38;42.79;99696.59;3177971;27;19923;-64
2023/07/12 02:27:23;;;;;;;;;;;;;;;25.36;43.13;99694.09;3178036;27;20065;-64
2023/07/12 02:28:55;;;;;;;;;;;;;;;25.35;43.31;99704.91;3175281;27;20420;-65
2023/07/12 02:30:27;;;;;;;;;;;;;;;25.25;43.07;99696.25;3178065;27;19941;-64
2023/07/12 02:31:59;;;;;;;;;;;;;;;25.31;43.14;99704.41;3177880;27;20005;-64
2023/07/12 02:33:29;;;;;;;;;;;;;;;25.28;43.39;99694.09;3177987;27;19927;-64
2023/07/12 02:35:01;;;;;;;;;;;;;;;25.26;43.14;99697.91;3174929;27;20416;-64
2023/07/12 02:36:32;;;;;;;;;;;;;;;25.26;43.08;99693.44;3169686;27;20159;-64
2023/07/12 02:38:05;;;;;;;;;;;;;;;25.27;43.50;99697.75;3177775;27;19927;-65
2023/07/12 02:39:35;;;;;;;;;;;;;;;25.29;43.26;99697.56;3178004;27;19923;-65
2023/07/12 02:41:07;;;;;;;;;;;;;;;25.29;43.01;99706.44;3178121;27;19923;-64
2023/07/12 02:42:38;;;;;;;;;;;;;;;25.30;43.11;99707.25;3176908;27;19937;-65
2023/07/12 02:44:10;;;;;;;;;;;;;;;25.29;43.40;99708.25;3178137;27;20430;-65
2023/07/12 02:45:47;;;;;;;;;;;;;;;25.29;43.39;99710.91;3152739;28;20083;-65
2023/07/12 02:47:18;;;;;;;;;;;;;;;25.28;43.36;99714.59;3161127;27;20400;-65
2023/07/12 02:48:49;;;;;;;;;;;;;;;25.28;43.46;99714.59;3177889;27;19975;-65
2023/07/12 02:50:20;;;;;;;;;;;;;;;25.25;43.51;99712.25;3168396;28;19927;-65
2023/07/12 02:51:51;;;;;;;;;;;;;;;25.23;43.56;99719.56;3175593;27;19966;-65
2023/07/12 02:53:23;;;;;;;;;;;;;;;25.21;43.37;99713.59;3177847;27;20019;-64
2023/07/12 02:54:55;;;;;;;;;;;;;;;25.18;43.40;99718.25;3177618;27;20272;-65
2023/07/12 02:56:26;;;;;;;;;;;;;;;25.13;43.51;99720.56;3177872;27;20396;-64
2023/07/12 02:57:57;;;;;;;;;;;;;;;25.09;43.68;99721.88;3177584;27;19924;-65
2023/07/12 02:59:28;;;;;;;;;;;;;;;25.05;43.70;99725.00;3177626;27;19972;-65
2023/07/12 03:01:00;;;;;;;;;;;;;;;25.06;44.01;99726.69;3179489;27;20377;-67
2023/07/12 03:02:31;;;;;;;;;;;;;;;25.06;43.62;99727.53;3169155;27;19927;-67
2023/07/12 03:04:03;;;;;;;;;;;;;;;25.07;43.65;99725.69;3169660;28;20003;-65
2023/07/12 03:05:34;;;;;;;;;;;;;;;25.08;43.77;99732.69;3169954;28;19943;-66
2023/07/12 03:07:06;;;;;;;;;;;;;;;25.07;43.48;99726.53;3177635;28;20303;-66
2023/07/12 03:08:39;;;;;;;;;;;;;;;25.06;43.87;99740.84;3177151;28;19927;-66
2023/07/12 03:10:10;;;;;;;;;;;;;;;25.03;44.00;99735.03;3166366;28;20294;-66
2023/07/12 03:11:44;;;;;;;;;;;;;;;25.00;43.76;99735.34;3177519;28;19983;-65
2023/07/12 03:13:15;;;;;;;;;;;;;;;24.96;44.11;99734.81;3177575;28;19923;-65
2023/07/12 03:14:46;;;;;;;;;;;;;;;24.92;44.26;99731.66;3177511;28;20543;-66
2023/07/12 03:16:17;;;;;;;;;;;;;;;24.91;44.36;99734.50;3178082;28;19923;-66
2023/07/12 03:17:49;;;;;;;;;;;;;;;24.90;44.07;99738.13;3177536;28;19923;-66
2023/07/12 03:19:20;;;;;;;;;;;;;;;24.88;44.28;99735.66;3176369;28;20269;-65
2023/07/12 03:20:51;;;;;;;;;;;;;;;24.87;44.39;99739.28;3174314;28;19923;-65
2023/07/12 03:22:22;;;;;;;;;;;;;;;24.87;44.41;99736.63;3177759;28;20456;-65
2023/07/12 03:23:54;;;;;;;;;;;;;;;24.86;44.17;99734.97;3177642;28;19927;-65
2023/07/12 03:25:26;;;;;;;;;;;;;;;24.85;44.31;99727.16;3177736;28;19923;-65
2023/07/12 03:26:57;;;;;;;;;;;;;;;24.84;44.22;99738.78;3177359;28;20376;-65
2023/07/12 03:28:28;;;;;;;;;;;;;;;24.85;44.44;99737.81;3175303;28;20079;-65
2023/07/12 03:30:00;;;;;;;;;;;;;;;24.85;44.28;99740.47;3177603;28;19969;-65
2023/07/12 03:31:31;;;;;;;;;;;;;;;24.86;44.42;99734.16;3177179;28;19923;-65
2023/07/12 03:33:03;;;;;;;;;;;;;;;24.87;44.05;99738.47;3177637;28;19923;-65
2023/07/12 03:34:35;;;;;;;;;;;;;;;24.87;44.08;99738.47;3176330;28;19975;-66
2023/07/12 03:36:06;;;;;;;;;;;;;;;24.87;44.06;99741.13;3177283;28;20202;-65
2023/07/12 03:37:37;;;;;;;;;;;;;;;24.87;44.32;99741.13;3177762;28;20395;-65
2023/07/12 03:39:10;;;;;;;;;;;;;;;24.86;44.21;99739.47;3177520;28;20395;-66
2023/07/12 03:40:41;;;;;;;;;;;;;;;24.84;44.25;99736.97;3177605;28;19931;-65
2023/07/12 03:42:13;;;;;;;;;;;;;;;24.83;44.04;99742.47;3177460;28;20409;-65
2023/07/12 03:43:43;;;;;;;;;;;;;;;24.83;44.16;99750.44;3177331;28;20373;-65
2023/07/12 03:45:15;;;;;;;;;;;;;;;24.86;44.38;99747.47;3177067;28;19924;-65
2023/07/12 03:46:46;;;;;;;;;;;;;;;24.87;44.30;99762.44;3176395;28;19983;-67
2023/07/12 03:48:17;;;;;;;;;;;;;;;24.88;44.18;99751.63;3177004;28;20031;-67
2023/07/12 03:49:49;;;;;;;;;;;;;;;24.91;44.23;99755.81;3172121;28;19923;-68
2023/07/12 03:51:22;;;;;;;;;;;;;;;24.90;44.02;99752.28;3173376;28;19930;-68
2023/07/12 03:52:54;;;;;;;;;;;;;;;24.91;43.97;99758.47;3177588;28;20424;-68
2023/07/12 03:54:26;;;;;;;;;;;;;;;24.92;43.90;99752.13;3179329;27;19924;-67
2023/07/12 03:56:00;;;;;;;;;;;;;;;24.92;44.07;99754.81;3178925;27;19930;-67
2023/07/12 03:57:32;;;;;;;;;;;;;;;24.92;44.05;99747.63;3179971;27;19934;-68
2023/07/12 03:59:03;;;;;;;;;;;;;;;24.95;43.90;99752.63;3180012;27;19974;-68
2023/07/12 04:00:34;;;;;;;;;;;;;;;24.96;43.98;99753.47;3180138;27;20190;-67
2023/07/12 04:02:06;;;;;;;;;;;;;;;24.95;43.99;99755.31;3170267;27;20157;-69
2023/07/12 04:03:37;;;;;;;;;;;;;;;24.93;44.25;99756.47;3179579;27;19927;-71
2023/07/12 04:05:09;;;;;;;;;;;;;;;24.92;44.26;99749.47;3171725;27;20379;-65
2023/07/12 04:06:40;;;;;;;;;;;;;;;24.93;44.21;99759.94;3177979;27;19930;-69
2023/07/12 04:08:12;;;;;;;;;;;;;;;24.92;44.50;99744.97;3179440;27;19976;-65
2023/07/12 04:09:45;;;;;;;;;;;;;;;24.90;44.39;99754.13;3176979;27;19930;-64
2023/07/12 04:11:22;;;;;;;;;;;;;;;24.89;44.46;99749.81;3179798;27;20516;-67
2023/07/12 04:12:54;;;;;;;;;;;;;;;24.89;44.59;99755.97;3179680;27;19934;-64
2023/07/12 04:14:25;;;;;;;;;;;;;;;24.89;44.44;99760.47;3179952;27;19924;-71
2023/07/12 04:15:57;;;;;;;;;;;;;;;24.89;44.38;99755.97;3179168;27;20250;-66
2023/07/12 04:17:28;;;;;;;;;;;;;;;24.92;44.49;99757.47;3179394;27;19923;-65
2023/07/12 04:18:59;;;;;;;;;;;;;;;24.91;44.65;99756.63;3178240;27;20029;-65
2023/07/12 04:20:31;;;;;;;;;;;;;;;24.94;44.16;99753.66;3168056;27;20436;-65
2023/07/12 04:22:02;;;;;;;;;;;;;;;24.95;44.29;99759.81;3165362;27;19923;-65
2023/07/12 04:23:33;;;;;;;;;;;;;;;24.97;44.49;99757.81;3178323;27;19962;-65
2023/07/12 04:25:06;;;;;;;;;;;;;;;25.00;44.28;99760.16;3178933;27;19929;-65
2023/07/12 04:26:38;;;;;;;;;;;;;;;25.03;44.17;99753.66;3178140;27;19923;-65
2023/07/12 04:28:09;;;;;;;;;;;;;;;25.03;44.45;99762.50;3172115;27;19988;-66
2023/07/12 04:29:42;;;;;;;;;;;;;;;25.04;44.49;99769.47;3178018;27;19966;-64
2023/07/12 04:31:12;;;;;;;;;;;;;;;24.98;44.15;99752.31;3179212;27;19923;-65
2023/07/12 04:32:47;;;;;;;;;;;;;;;25.09;44.56;99769.00;3178900;27;20473;-65
2023/07/12 04:34:17;;;;;;;;;;;;;;;25.12;44.35;99763.34;3178154;27;20488;-66
2023/07/12 04:35:49;;;;;;;;;;;;;;;25.16;44.33;99770.03;3177574;27;19942;-65
2023/07/12 04:37:19;;;;;;;;;;;;;;;25.19;44.04;99777.69;3178344;27;20692;-65
2023/07/12 04:38:51;;;;;;;;;;;;;;;25.23;44.16;99775.53;3178399;27;19923;-65
2023/07/12 04:40:23;;;;;;;;;;;;;;;25.27;44.14;99771.56;3178211;27;19992;-64
2023/07/12 04:41:55;;;;;;;;;;;;;;;25.32;43.94;99771.88;3178427;27;20387;-67
2023/07/12 04:43:25;;;;;;;;;;;;;;;25.36;43.88;99774.06;3178783;27;19923;-66
2023/07/12 04:44:57;;;;;;;;;;;;;;;25.39;44.01;99775.56;3178476;27;20114;-66
2023/07/12 04:46:29;;;;;;;;;;;;;;;25.42;43.95;99772.56;3178404;27;19972;-63
2023/07/12 04:48:00;;;;;;;;;;;;;;;25.46;43.83;99773.06;3177632;27;19927;-66
2023/07/12 04:49:31;;;;;;;;;;;;;;;25.51;43.72;99774.22;3176574;27;19959;-68
2023/07/12 04:51:03;;;;;;;;;;;;;;;25.55;43.84;99775.56;3177843;27;20136;-69
2023/07/12 04:52:35;;;;;;;;;;;;;;;25.59;43.77;99768.09;3179443;27;20670;-68
2023/07/12 04:54:06;;;;;;;;;;;;;;;25.64;43.76;99773.72;3179359;27;20013;-66
2023/07/12 04:55:38;;;;;;;;;;;;;;;25.67;43.84;99772.56;3178965;27;20366;-65
2023/07/12 04:57:10;;;;;;;;;;;;;;;25.70;43.45;99775.72;3178900;27;19930;-68
2023/07/12 04:58:42;;;;;;;;;;;;;;;25.74;43.64;99782.41;3170966;27;20014;-68
2023/07/12 05:00:14;;;;;;;;;;;;;;;25.79;43.61;99785.41;3179221;27;19946;-68
2023/07/12 05:01:46;;;;;;;;;;;;;;;25.82;43.15;99785.09;3172339;27;19935;-68
2023/07/12 05:03:17;;;;;;;;;;;;;;;25.88;43.50;99788.91;3174299;27;20038;-68
2023/07/12 05:04:48;;;;;;;;;;;;;;;25.92;43.45;99782.25;3173884;27;20086;-66
2023/07/12 05:06:19;;;;;;;;;;;;;;;25.95;43.34;99784.59;3172017;27;20404;-64
2023/07/12 05:07:50;;;;;;;;;;;;;;;26.00;43.02;99789.41;3178834;27;19923;-64
2023/07/12 05:09:22;;;;;;;;;;;;;;;26.06;43.02;99791.41;3175990;27;19924;-66
2023/07/12 05:10:59;;;;;;;;;;;;;;;26.09;43.00;99791.91;3178842;27;20003;-64
2023/07/12 05:12:30;;;;;;;;;;;;;;;26.15;42.84;99800.22;3178888;27;19928;-63
2023/07/12 05:14:01;;;;;;;;;;;;;;;26.19;43.12;99796.22;3178728;27;20534;-64
2023/07/12 05:15:33;;;;;;;;;;;;;;;26.23;43.10;99790.34;3178885;27;20304;-66
2023/07/12 05:17:04;;;;;;;;;;;;;;;26.29;42.99;99788.84;3165558;27;20341;-65
2023/07/12 05:18:36;;;;;;;;;;;;;;;26.33;43.12;99795.53;3178846;27;20026;-65
2023/07/12 05:20:08;;;;;;;;;;;;;;;26.36;43.00;99797.84;3161087;28;19923;-66
2023/07/12 05:21:39;;;;;;;;;;;;;;;26.41;42.69;99798.13;3169496;27;19946;-64
2023/07/12 05:23:10;;;;;;;;;;;;;;;26.46;42.91;99805.66;3170329;27;20501;-66
2023/07/12 05:24:42;;;;;;;;;;;;;;;26.47;42.96;99802.81;3168737;27;19924;-71
2023/07/12 05:26:14;;;;;;;;;;;;;;;26.50;42.65;99801.66;3169319;27;19935;-68
2023/07/12 05:27:46;;;;;;;;;;;;;;;26.52;43.07;99795.13;3173834;27;19928;-67
2023/07/12 05:29:16;;;;;;;;;;;;;;;26.55;43.00;99800.13;3165550;27;20004;-67
2023/07/12 05:30:49;;;;;;;;;;;;;;;26.59;42.69;99794.44;3168429;27;20373;-64
2023/07/12 05:32:20;;;;;;;;;;;;;;;26.63;42.56;99785.94;3164242;27;19935;-66
2023/07/12 05:33:51;;;;;;;;;;;;;;;26.68;42.66;99783.56;3166366;28;19938;-66
2023/07/12 05:35:23;;;;;;;;;;;;;;;26.73;42.54;99785.72;3170776;27;19924;-66
2023/07/12 05:36:54;;;;;;;;;;;;;;;26.79;42.65;99779.66;3170291;27;19971;-66
2023/07/12 05:38:25;;;;;;;;;;;;;;;26.84;42.29;99782.66;3166225;27;19934;-66
2023/07/12 05:39:56;;;;;;;;;;;;;;;26.90;42.44;99787.28;3171342;27;19923;-66
2023/07/12 05:41:29;;;;;;;;;;;;;;;26.96;42.50;99785.75;3172319;27;19970;-67
2023/07/12 05:43:01;;;;;;;;;;;;;;;27.02;42.21;99784.22;3178653;27;19923;-67
2023/07/12 05:44:32;;;;;;;;;;;;;;;27.09;42.34;99790.53;3178581;27;20442;-67
2023/07/12 05:46:04;;;;;;;;;;;;;;;27.15;42.31;99787.19;3178811;27;19930;-67
2023/07/12 05:47:35;;;;;;;;;;;;;;;27.20;41.94;99790.16;3169521;27;20369;-63
2023/07/12 05:49:06;;;;;;;;;;;;;;;27.26;41.70;99785.94;3177988;27;19978;-63
2023/07/12 05:50:37;;;;;;;;;;;;;;;27.32;41.89;99791.41;3178445;27;19923;-62
2023/07/12 05:52:09;;;;;;;;;;;;;;;27.39;41.55;99788.84;3178305;27;20594;-62
2023/07/12 05:53:40;;;;;;;;;;;;;;;27.47;41.76;99794.16;3178453;27;19923;-62
2023/07/12 05:55:12;;;;;;;;;;;;;;;27.52;41.45;99789.09;3178123;27;19923;-63
2023/07/12 05:56:44;;;;;;;;;;;;;;;27.60;41.58;99791.72;3174752;27;20348;-63
2023/07/12 05:58:16;;;;;;;;;;;;;;;27.67;41.47;99789.97;3171528;27;20399;-62
2023/07/12 05:59:46;;;;;;;;;;;;;;;27.75;41.43;99791.75;3178370;27;19924;-64
2023/07/12 06:01:19;;;;;;;;;;;;;;;27.83;41.06;99793.53;3175154;27;20816;-66
2023/07/12 06:02:51;;;;;;;;;;;;;;;27.92;40.97;99796.97;3168973;27;20459;-65
2023/07/12 06:04:22;;;;;;;;;;;;;;;28.00;41.04;99796.91;3178269;27;20034;-66
2023/07/12 06:05:53;;;;;;;;;;;;;;;28.09;40.79;99793.94;3178324;27;19931;-69
2023/07/12 06:07:25;;;;;;;;;;;;;;;28.19;40.98;99806.25;3178127;27;19945;-70
2023/07/12 06:08:56;;;;;;;;;;;;;;;28.28;40.96;99805.16;3178145;27;19953;-70
2023/07/12 06:10:27;;;;;;;;;;;;;;;28.36;40.88;99795.16;3178168;27;19924;-70
2023/07/12 06:11:59;;;;;;;;;;;;;;;28.45;40.71;99795.13;3178109;27;20014;-69
2023/07/12 06:13:31;;;;;;;;;;;;;;;28.53;40.40;99798.53;3177677;27;20025;-69
2023/07/12 06:15:03;;;;;;;;;;;;;;;28.63;40.18;99800.91;3178003;27;19927;-69
2023/07/12 06:16:34;;;;;;;;;;;;;;;28.70;40.05;99792.97;3177761;27;19927;-68
2023/07/12 06:18:06;;;;;;;;;;;;;;;28.78;40.25;99798.22;3170618;27;19927;-69
2023/07/12 06:19:37;;;;;;;;;;;;;;;28.85;40.23;99793.78;3178121;27;20323;-68
2023/07/12 06:21:09;;;;;;;;;;;;;;;28.94;39.76;99797.19;3178322;27;19927;-68
2023/07/12 06:22:41;;;;;;;;;;;;;;;29.02;39.81;99797.13;3177973;27;19923;-69
2023/07/12 06:24:12;;;;;;;;;;;;;;;29.10;39.41;99793.47;3176915;27;19927;-67
2023/07/12 06:25:43;;;;;;;;;;;;;;;29.16;39.54;99790.84;3177953;27;20498;-67
2023/07/12 06:27:15;;;;;;;;;;;;;;;29.22;39.33;99787.44;3178174;27;19998;-66
2023/07/12 06:28:47;;;;;;;;;;;;;;;29.29;38.90;99781.31;3178376;27;20418;-67
2023/07/12 06:30:18;;;;;;;;;;;;;;;29.36;39.15;99782.19;3174789;27;20392;-67
2023/07/12 06:31:50;;;;;;;;;;;;;;;29.43;39.07;99791.13;3170426;27;19980;-64
2023/07/12 06:33:21;;;;;;;;;;;;;;;29.50;38.85;99786.66;3172722;27;19923;-67
2023/07/12 06:34:53;;;;;;;;;;;;;;;29.60;38.52;99792.50;3177610;27;19923;-66
2023/07/12 06:36:23;;;;;;;;;;;;;;;29.68;38.60;99789.72;3177852;27;19923;-67
2023/07/12 06:37:56;;;;;;;;;;;;;;;29.75;38.21;99788.97;3177825;27;20324;-67
2023/07/12 06:39:27;;;;;;;;;;;;;;;29.83;38.46;99788.81;3178122;27;19966;-64
2023/07/12 06:40:58;;;;;;;;;;;;;;;29.89;38.21;99788.88;3176138;27;19959;-67
2023/07/12 06:42:31;;;;;;;;;;;;;;;29.98;37.85;99789.56;3166929;27;20025;-66
2023/07/12 06:44:03;;;;;;;;;;;;;;;30.02;37.65;99801.56;3176828;27;19934;-65
2023/07/12 06:45:34;;;;;;;;;;;;;;;30.05;37.46;99795.81;3177561;27;19928;-67
2023/07/12 06:47:05;;;;;;;;;;;;;;;30.08;37.06;99794.56;3176644;27;20391;-67
2023/07/12 06:48:36;;;;;;;;;;;;;;;30.13;37.10;99792.94;3168154;27;20585;-66
2023/07/12 06:50:09;;;;;;;;;;;;;;;30.21;37.03;99785.81;3177626;27;19963;-66
2023/07/12 06:51:39;;;;;;;;;;;;;;;30.28;36.94;99790.19;3177291;27;19929;-66
2023/07/12 06:53:11;;;;;;;;;;;;;;;30.35;37.00;99788.38;3172786;27;19958;-66
2023/07/12 06:54:43;;;;;;;;;;;;;;;30.45;36.70;99797.94;3177735;27;20433;-67
2023/07/12 06:56:13;;;;;;;;;;;;;;;30.52;36.89;99791.56;3177725;27;20443;-65
2023/07/12 06:57:47;;;;;;;;;;;;;;;30.61;36.83;99789.53;3169817;27;19927;-66
2023/07/12 06:59:18;;;;;;;;;;;;;;;30.69;36.62;99781.31;3171384;27;19934;-66
2023/07/12 07:00:49;;;;;;;;;;;;;;;30.75;36.61;99776.97;3165199;27;19981;-66
2023/07/12 07:02:21;;;;;;;;;;;;;;;30.81;36.25;99781.59;3169929;27;19931;-67
2023/07/12 07:03:51;;;;;;;;;;;;;;;30.86;36.17;99781.00;3177844;27;19972;-67
2023/07/12 07:05:23;;;;;;;;;;;;;;;30.91;36.26;99782.06;3170764;28;20364;-69
2023/07/12 07:06:54;;;;;;;;;;;;;;;30.97;36.23;99778.56;3175354;28;20026;-69
2023/07/12 07:08:27;;;;;;;;;;;;;;;31.03;36.08;99788.50;3177656;28;19923;-70
2023/07/12 07:09:58;;;;;;;;;;;;;;;31.11;35.79;99789.31;3177792;28;19927;-69
2023/07/12 07:11:29;;;;;;;;;;;;;;;31.16;36.06;99785.00;3177491;28;19923;-68
2023/07/12 07:13:03;;;;;;;;;;;;;;;31.26;35.88;99792.66;3177845;28;19927;-71
2023/07/12 07:14:34;;;;;;;;;;;;;;;31.32;35.53;99785.63;3177580;28;20375;-71
2023/07/12 07:16:06;;;;;;;;;;;;;;;31.35;35.37;99775.31;3167867;28;19962;-71
2023/07/12 07:17:36;;;;;;;;;;;;;;;31.41;35.48;99779.06;3171182;28;19931;-69
2023/07/12 07:21:16;;;;;;;;;;;;;;;31.58;35.32;99774.94;3177920;28;19924;-70
2023/07/12 07:25:00;;;;;;;;;;;;;;;31.77;34.81;99781.38;3138701;28;19935;-70
2023/07/12 07:27:50;;;;;;;;;;;;;;;31.85;34.66;99775.75;3148059;28;19982;-68
2023/07/12 07:28:33;;;;;;;;;;;;;;;32.01;34.63;99781.78;3097821;28;20476;-68
2023/07/12 07:30:37;;;;;;;;;;;;;;;32.12;34.29;99783.81;3174249;27;19973;-69
2023/07/12 07:32:19;;;;;;;;;;;;;;;32.23;34.09;99772.41;3178521;27;19963;-71
2023/07/12 07:33:53;;;;;;;;;;;;;;;32.32;34.17;99771.13;3176755;27;20018;-68
2023/07/12 07:35:36;;;;;;;;;;;;;;;32.44;33.85;99781.25;3179904;27;19923;-69
2023/07/12 07:37:15;;;;;;;;;;;;;;;32.59;34.00;99771.91;3173296;27;19923;-67
2023/07/12 07:38:50;;;;;;;;;;;;;;;32.73;33.85;99777.25;3179072;27;19923;-69
2023/07/12 07:40:24;;;;;;;;;;;;;;;32.82;33.41;99773.25;3179791;27;20421;-69
2023/07/12 07:42:01;;;;;;;;;;;;;;;32.95;33.38;99767.81;3178807;27;20288;-68
2023/07/12 07:43:44;;;;;;;;;;;;;;;33.12;33.41;99770.84;3179872;27;20426;-69
2023/07/12 07:45:27;;;;;;;;;;;;;;;33.33;33.05;99772.34;3178391;27;19939;-67
2023/07/12 07:46:58;;;;;;;;;;;;;;;33.47;32.86;99775.78;3172818;27;19923;-68
2023/07/12 07:48:30;;;;;;;;;;;;;;;33.56;32.62;99777.19;3178177;27;20355;-69
2023/07/12 07:50:01;;;;;;;;;;;;;;;33.65;32.61;99783.97;3179710;27;19923;-68
2023/07/12 07:51:36;;;;;;;;;;;;;;;33.73;32.37;99786.41;3177566;27;20359;-69
2023/07/12 07:53:07;;;;;;;;;;;;;;;33.78;32.13;99779.50;3179810;27;19927;-71
2023/07/12 07:54:38;;;;;;;;;;;;;;;33.84;31.89;99773.22;3179773;27;19923;-70
2023/07/12 07:56:11;;;;;;;;;;;;;;;33.90;32.05;99777.75;3178101;27;19923;-73
2023/07/12 07:57:42;;;;;;;;;;;;;;;33.96;31.92;99777.69;3169153;27;19924;-72
2023/07/12 07:59:15;;;;;;;;;;;;;;;34.08;31.49;99774.28;3179767;27;20021;-75
2023/07/12 08:00:46;;;;;;;;;;;;;;;34.18;31.59;99786.22;3178263;27;20315;-70
2023/07/12 08:02:17;;;;;;;;;;;;;;;34.24;31.15;99784.50;3175450;27;19923;-71
2023/07/12 08:03:49;;;;;;;;;;;;;;;34.25;30.91;99778.03;3176074;27;20028;-67
2023/07/12 08:05:20;;;;;;;;;;;;;;;34.29;31.08;99775.72;3179027;27;20002;-67